createdAt,value
2023-01-04T00:00:25.000Z,1015.7
2023-01-04T00:01:41.000Z,1015.7
2023-01-04T00:02:57.000Z,1015.7
2023-01-04T00:04:13.000Z,1015.6
2023-01-04T00:05:29.000Z,1015.6
2023-01-04T00:06:45.000Z,1015.6
2023-01-04T00:08:02.000Z,1015.5
2023-01-04T00:09:18.000Z,1015.5
2023-01-04T00:10:34.000Z,1015.5
2023-01-04T00:11:50.000Z,1015.5
2023-01-04T00:13:05.940Z,1015.5
2023-01-04T00:14:21.000Z,1015.4
2023-01-04T00:15:38.000Z,1015.3
2023-01-04T00:16:54.000Z,1015.3
2023-01-04T00:18:10.000Z,1015.2
2023-01-04T00:19:26.000Z,1015.3
2023-01-04T00:20:42.812Z,1015.2
2023-01-04T00:21:58.000Z,1015.2
2023-01-04T00:23:14.000Z,1015.3
2023-01-04T00:24:31.000Z,1015.2
2023-01-04T00:25:47.394Z,1015.1
2023-01-04T00:27:03.000Z,1015.1
2023-01-04T00:28:19.000Z,1015.1
2023-01-04T00:29:34.000Z,1014.9
2023-01-04T00:30:50.000Z,1014.9
2023-01-04T00:32:06.000Z,1014.9
2023-01-04T00:33:23.000Z,1014.9
2023-01-04T00:34:39.000Z,1014.7
2023-01-04T00:35:55.000Z,1014.7
2023-01-04T00:37:11.000Z,1014.6
2023-01-04T00:38:27.000Z,1014.6
2023-01-04T00:39:43.000Z,1014.5
2023-01-04T00:40:59.000Z,1014.5
2023-01-04T00:42:16.000Z,1014.4
2023-01-04T00:43:32.000Z,1014.5
2023-01-04T00:44:48.593Z,1014.3
2023-01-04T00:46:03.000Z,1014.3
2023-01-04T00:47:19.000Z,1014.3
2023-01-04T00:48:35.000Z,1014.2
2023-01-04T00:49:51.000Z,1014.2
2023-01-04T00:51:08.000Z,1014.2
2023-01-04T00:52:24.482Z,1014.1
2023-01-04T00:53:40.671Z,1014.1
2023-01-04T00:54:56.000Z,1014
2023-01-04T00:56:12.000Z,1014
2023-01-04T00:57:28.000Z,1013.9
2023-01-04T00:58:44.000Z,1013.9
2023-01-04T01:00:01.000Z,1013.9
2023-01-04T01:01:17.000Z,1013.9
2023-01-04T01:02:32.000Z,1013.9
2023-01-04T01:03:48.000Z,1013.8
2023-01-04T01:05:04.000Z,1013.8
2023-01-04T01:06:20.000Z,1013.7
2023-01-04T01:07:37.000Z,1013.8
2023-01-04T01:08:53.000Z,1013.7
2023-01-04T01:10:09.000Z,1013.7
2023-01-04T01:11:25.000Z,1013.7
2023-01-04T01:12:41.000Z,1013.7
2023-01-04T01:13:57.000Z,1013.7
2023-01-04T01:15:13.000Z,1013.6
2023-01-04T01:16:30.000Z,1013.7
2023-01-04T01:17:46.000Z,1013.6
2023-01-04T01:19:01.000Z,1013.6
2023-01-04T01:20:17.000Z,1013.6
2023-01-04T01:21:33.000Z,1013.6
2023-01-04T01:22:49.000Z,1013.7
2023-01-04T01:24:05.000Z,1013.6
2023-01-04T01:25:22.000Z,1013.6
2023-01-04T01:26:38.000Z,1013.5
2023-01-04T01:27:54.000Z,1013.4
2023-01-04T01:29:10.000Z,1013.4
2023-01-04T01:30:26.000Z,1013.2
2023-01-04T01:31:42.000Z,1013.2
2023-01-04T01:32:58.000Z,1013.2
2023-01-04T01:34:15.000Z,1013.2
2023-01-04T01:35:30.000Z,1013.1
2023-01-04T01:36:46.000Z,1013.1
2023-01-04T01:38:02.000Z,1013.1
2023-01-04T01:39:18.000Z,1013
2023-01-04T01:40:34.000Z,1013
2023-01-04T01:41:50.000Z,1013
2023-01-04T01:43:07.000Z,1013
2023-01-04T01:44:23.000Z,1013
2023-01-04T01:45:39.000Z,1012.9
2023-01-04T01:46:55.790Z,1012.9
2023-01-04T01:48:11.932Z,1012.8
2023-01-04T01:49:27.000Z,1012.8
2023-01-04T01:50:43.000Z,1012.8
2023-01-04T01:51:59.000Z,1012.8
2023-01-04T01:53:15.000Z,1012.7
2023-01-04T01:54:31.000Z,1012.6
2023-01-04T01:55:47.000Z,1012.6
2023-01-04T01:57:03.000Z,1012.5
2023-01-04T01:58:19.000Z,1012.5
2023-01-04T01:59:36.000Z,1012.5
2023-01-04T02:00:52.000Z,1012.4
2023-01-04T02:02:08.000Z,1012.4
2023-01-04T02:03:24.000Z,1012.4
2023-01-04T02:04:40.000Z,1012.3
2023-01-04T02:05:56.000Z,1012.3
2023-01-04T02:07:12.000Z,1012.3
2023-01-04T02:08:28.000Z,1012.2
2023-01-04T02:09:44.000Z,1012.2
2023-01-04T02:11:00.000Z,1012.2
2023-01-04T02:12:16.733Z,1012.1
2023-01-04T02:13:32.000Z,1012
2023-01-04T02:14:48.000Z,1012
2023-01-04T02:16:04.000Z,1012
2023-01-04T02:17:21.000Z,1011.9
2023-01-04T02:18:37.460Z,1012
2023-01-04T02:19:53.000Z,1011.9
2023-01-04T02:21:09.000Z,1011.8
2023-01-04T02:22:25.000Z,1011.8
2023-01-04T02:23:42.045Z,1011.7
2023-01-04T02:24:56.000Z,1011.7
2023-01-04T02:26:13.000Z,1011.6
2023-01-04T02:27:29.000Z,1011.6
2023-01-04T02:28:45.000Z,1011.5
2023-01-04T02:30:01.000Z,1011.5
2023-01-04T02:31:17.000Z,1011.5
2023-01-04T02:32:32.000Z,1011.3
2023-01-04T02:33:49.000Z,1011.4
2023-01-04T02:35:05.000Z,1011.4
2023-01-04T02:36:21.000Z,1011.4
2023-01-04T02:37:37.000Z,1011.3
2023-01-04T02:38:53.000Z,1011.3
2023-01-04T02:40:09.000Z,1011.2
2023-01-04T02:41:25.000Z,1011.3
2023-01-04T02:42:42.000Z,1011.1
2023-01-04T02:43:58.000Z,1011.2
2023-01-04T02:45:14.555Z,1011.1
2023-01-04T02:46:30.000Z,1011.1
2023-01-04T02:47:46.845Z,1011
2023-01-04T02:49:01.000Z,1011
2023-01-04T02:50:17.000Z,1011
2023-01-04T02:51:34.000Z,1011
2023-01-04T02:52:50.000Z,1010.9
2023-01-04T02:54:06.000Z,1010.9
2023-01-04T02:55:22.000Z,1010.9
2023-01-04T02:56:38.876Z,1010.8
2023-01-04T02:57:54.000Z,1010.7
2023-01-04T02:59:10.000Z,1010.7
2023-01-04T03:00:27.326Z,1010.7
2023-01-04T03:01:43.494Z,1010.6
2023-01-04T03:02:59.000Z,1010.6
2023-01-04T03:04:15.772Z,1010.6
2023-01-04T03:05:30.000Z,1010.5
2023-01-04T03:06:47.063Z,1010.5
2023-01-04T03:08:02.000Z,1010.4
2023-01-04T03:09:19.000Z,1010.5
2023-01-04T03:10:35.000Z,1010.4
2023-01-04T03:11:51.000Z,1010.4
2023-01-04T03:13:07.000Z,1010.3
2023-01-04T03:14:23.949Z,1010.3
2023-01-04T03:15:39.000Z,1010.3
2023-01-04T03:16:56.000Z,1010.2
2023-01-04T03:18:12.000Z,1010.1
2023-01-04T03:19:28.000Z,1010.1
2023-01-04T03:20:44.682Z,1010.1
2023-01-04T03:21:59.841Z,1010
2023-01-04T03:23:15.000Z,1010
2023-01-04T03:24:31.000Z,1009.9
2023-01-04T03:25:48.293Z,1009.9
2023-01-04T03:27:04.000Z,1009.9
2023-01-04T03:28:20.000Z,1009.9
2023-01-04T03:29:36.000Z,1009.9
2023-01-04T03:30:52.861Z,1009.8
2023-01-04T03:32:08.000Z,1009.7
2023-01-04T03:33:24.000Z,1009.7
2023-01-04T03:34:41.306Z,1009.7
2023-01-04T03:35:57.000Z,1009.5
2023-01-04T03:37:13.000Z,1009.5
2023-01-04T03:38:28.000Z,1009.5
2023-01-04T03:39:44.000Z,1009.5
2023-01-04T03:41:00.000Z,1009.4
2023-01-04T03:42:17.208Z,1009.4
2023-01-04T03:43:33.000Z,1009.3
2023-01-04T03:44:49.495Z,1009.3
2023-01-04T03:46:05.000Z,1009.2
2023-01-04T03:47:21.000Z,1009.2
2023-01-04T03:48:37.937Z,1009.1
2023-01-04T03:49:53.000Z,1009
2023-01-04T03:51:09.000Z,1009
2023-01-04T03:52:26.378Z,1009
2023-01-04T03:53:42.715Z,1008.9
2023-01-04T03:54:57.000Z,1008.9
2023-01-04T03:56:13.835Z,1008.9
2023-01-04T03:57:29.000Z,1008.8
2023-01-04T03:58:45.000Z,1008.8
2023-01-04T04:00:02.286Z,1008.8
2023-01-04T04:01:18.000Z,1008.8
2023-01-04T04:02:34.000Z,1008.7
2023-01-04T04:03:50.000Z,1008.7
2023-01-04T04:05:06.000Z,1008.7
2023-01-04T04:06:23.009Z,1008.7
2023-01-04T04:07:38.000Z,1008.7
2023-01-04T04:08:55.000Z,1008.6
2023-01-04T04:10:11.454Z,1008.6
2023-01-04T04:11:26.000Z,1008.5
2023-01-04T04:12:42.000Z,1008.5
2023-01-04T04:13:58.941Z,1008.4
2023-01-04T04:15:15.056Z,1008.4
2023-01-04T04:16:30.000Z,1008.3
2023-01-04T04:17:47.347Z,1008.4
2023-01-04T04:19:03.494Z,1008.2
2023-01-04T04:20:19.000Z,1008
2023-01-04T04:21:35.000Z,1008.2
2023-01-04T04:22:51.000Z,1008.1
2023-01-04T04:24:07.000Z,1008.2
2023-01-04T04:25:24.000Z,1008
2023-01-04T04:26:40.376Z,1007.9
2023-01-04T04:27:55.000Z,1007.9
2023-01-04T04:29:11.000Z,1007.9
2023-01-04T04:30:27.000Z,1007.9
2023-01-04T04:31:43.000Z,1007.8
2023-01-04T04:32:59.000Z,1007.7
2023-01-04T04:34:16.000Z,1007.7
2023-01-04T04:35:32.000Z,1007.7
2023-01-04T04:36:48.564Z,1007.6
2023-01-04T04:38:04.000Z,1007.5
2023-01-04T04:39:20.000Z,1007.5
2023-01-04T04:40:37.017Z,1007.5
2023-01-04T04:41:52.000Z,1007.4
2023-01-04T04:43:09.000Z,1007.3
2023-01-04T04:44:24.000Z,1007.4
2023-01-04T04:45:40.617Z,1007.2
2023-01-04T04:46:56.000Z,1007.3
2023-01-04T04:48:12.000Z,1007.2
2023-01-04T04:49:29.049Z,1007.2
2023-01-04T04:50:45.193Z,1007.2
2023-01-04T04:52:01.000Z,1007.1
2023-01-04T04:53:17.000Z,1007.1
2023-01-04T04:54:33.000Z,1007.1
2023-01-04T04:55:49.000Z,1007.1
2023-01-04T04:57:05.000Z,1006.9
2023-01-04T04:58:21.000Z,1007
2023-01-04T04:59:37.000Z,1006.9
2023-01-04T05:00:53.000Z,1006.8
2023-01-04T05:02:09.000Z,1006.8
2023-01-04T05:03:25.000Z,1006.8
2023-01-04T05:04:41.000Z,1006.7
2023-01-04T05:05:57.000Z,1006.7
2023-01-04T05:07:13.000Z,1006.7
2023-01-04T05:08:30.000Z,1006.6
2023-01-04T05:09:46.000Z,1006.5
2023-01-04T05:11:02.000Z,1006.5
2023-01-04T05:12:18.706Z,1006.4
2023-01-04T05:13:34.000Z,1006.4
2023-01-04T05:14:50.000Z,1006.4
2023-01-04T05:16:06.000Z,1006.4
2023-01-04T05:17:22.313Z,1006.4
2023-01-04T05:18:38.000Z,1006.4
2023-01-04T05:19:54.000Z,1006.3
2023-01-04T05:21:10.000Z,1006.2
2023-01-04T05:22:26.000Z,1006.2
2023-01-04T05:23:42.000Z,1006.1
2023-01-04T05:24:58.000Z,1006.1
2023-01-04T05:26:15.000Z,1006.2
2023-01-04T05:27:31.000Z,1006.1
2023-01-04T05:28:47.000Z,1006
2023-01-04T05:30:03.000Z,1006
2023-01-04T05:31:19.000Z,1006
2023-01-04T05:32:35.000Z,1005.9
2023-01-04T05:33:51.000Z,1005.9
2023-01-04T05:35:07.000Z,1005.9
2023-01-04T05:36:23.000Z,1005.8
2023-01-04T05:37:39.000Z,1005.8
2023-01-04T05:38:55.000Z,1005.8
2023-01-04T05:40:11.000Z,1005.7
2023-01-04T05:41:27.000Z,1005.7
2023-01-04T05:42:44.000Z,1005.6
2023-01-04T05:44:00.000Z,1005.7
2023-01-04T05:45:16.000Z,1005.6
2023-01-04T05:46:32.000Z,1005.6
2023-01-04T05:47:48.000Z,1005.6
2023-01-04T05:49:04.000Z,1005.5
2023-01-04T05:50:19.000Z,1005.5
2023-01-04T05:51:36.000Z,1005.4
2023-01-04T05:52:52.000Z,1005.4
2023-01-04T05:54:08.000Z,1005.4
2023-01-04T05:55:24.000Z,1005.3
2023-01-04T05:56:40.000Z,1005.4
2023-01-04T05:57:56.000Z,1005.3
2023-01-04T05:59:12.000Z,1005.3
2023-01-04T06:00:29.000Z,1005.3
2023-01-04T06:01:45.000Z,1005.3
2023-01-04T06:03:01.000Z,1005.2
2023-01-04T06:04:17.000Z,1005.2
2023-01-04T06:05:33.000Z,1005.2
2023-01-04T06:06:48.000Z,1005.2
2023-01-04T06:08:05.000Z,1005.2
2023-01-04T06:09:21.380Z,1005.2
2023-01-04T06:10:37.000Z,1005.1
2023-01-04T06:11:53.000Z,1005.1
2023-01-04T06:13:09.000Z,1005
2023-01-04T06:14:25.000Z,1005.1
2023-01-04T06:15:41.000Z,1005.1
2023-01-04T06:16:58.000Z,1004.8
2023-01-04T06:18:14.000Z,1004.8
2023-01-04T06:19:30.000Z,1004.8
2023-01-04T06:20:46.000Z,1004.8
2023-01-04T06:22:02.848Z,1004.8
2023-01-04T06:23:17.000Z,1004.8
2023-01-04T06:24:33.000Z,1004.8
2023-01-04T06:25:50.000Z,1004.8
2023-01-04T06:27:06.000Z,1004.7
2023-01-04T06:28:22.000Z,1004.7
2023-01-04T06:29:38.000Z,1004.7
2023-01-04T06:30:54.000Z,1004.6
2023-01-04T06:32:10.000Z,1004.6
2023-01-04T06:33:26.000Z,1004.6
2023-01-04T06:34:43.000Z,1004.5
2023-01-04T06:35:59.000Z,1004.5
2023-01-04T06:37:15.000Z,1004.5
2023-01-04T06:38:31.000Z,1004.4
2023-01-04T06:39:46.000Z,1004.4
2023-01-04T06:41:02.000Z,1004.1
2023-01-04T06:42:18.000Z,1004.3
2023-01-04T06:43:35.000Z,1004.3
2023-01-04T06:44:51.000Z,1004.3
2023-01-04T06:46:07.000Z,1004.4
2023-01-04T06:47:22.838Z,1004.3
2023-01-04T06:48:38.000Z,1004.4
2023-01-04T06:49:54.000Z,1004.2
2023-01-04T06:51:11.000Z,1004.3
2023-01-04T06:52:27.423Z,1004.3
2023-01-04T06:53:43.000Z,1004.3
2023-01-04T06:54:59.000Z,1004
2023-01-04T06:56:15.000Z,1004
2023-01-04T06:57:31.000Z,1004
2023-01-04T06:58:47.000Z,1004.1
2023-01-04T07:00:04.000Z,1004.2
2023-01-04T07:01:20.000Z,1004.2
2023-01-04T07:02:36.000Z,1004
2023-01-04T07:03:51.000Z,1004
2023-01-04T07:05:07.000Z,1004
2023-01-04T07:06:23.000Z,1003.8
2023-01-04T07:07:39.000Z,1003.8
2023-01-04T07:08:56.000Z,1003.9
2023-01-04T07:10:12.499Z,1004
2023-01-04T07:11:28.000Z,1004
2023-01-04T07:12:44.000Z,1004
2023-01-04T07:14:00.933Z,1003.9
2023-01-04T07:15:16.000Z,1003.8
2023-01-04T07:16:32.000Z,1003.7
2023-01-04T07:17:49.000Z,1003.7
2023-01-04T07:19:05.000Z,1003.8
2023-01-04T07:20:20.000Z,1003.9
2023-01-04T07:21:36.000Z,1003.9
2023-01-04T07:22:52.000Z,1003.7
2023-01-04T07:24:08.000Z,1003.7
2023-01-04T07:25:25.276Z,1003.6
2023-01-04T07:26:41.000Z,1003.6
2023-01-04T07:27:57.000Z,1003.5
2023-01-04T07:29:13.000Z,1003.5
2023-01-04T07:30:29.000Z,1003.6
2023-01-04T07:31:45.000Z,1003.5
2023-01-04T07:33:02.157Z,1003.5
2023-01-04T07:34:18.000Z,1003.5
2023-01-04T07:35:34.000Z,1003.5
2023-01-04T07:36:49.000Z,1003.5
2023-01-04T07:38:05.000Z,1003.2
2023-01-04T07:39:21.905Z,1003.4
2023-01-04T07:40:37.000Z,1003.3
2023-01-04T07:41:53.000Z,1003.4
2023-01-04T07:43:10.000Z,1003.4
2023-01-04T07:44:26.000Z,1003.3
2023-01-04T07:45:42.000Z,1003.3
2023-01-04T07:46:58.000Z,1003.3
2023-01-04T07:48:14.000Z,1003.3
2023-01-04T07:49:30.000Z,1003.2
2023-01-04T07:50:46.000Z,1003.1
2023-01-04T07:52:03.000Z,1003.3
2023-01-04T07:53:18.000Z,1003.1
2023-01-04T07:54:34.000Z,1003.2
2023-01-04T07:55:50.000Z,1003.3
2023-01-04T07:57:06.000Z,1003.2
2023-01-04T07:58:22.000Z,1003.3
2023-01-04T07:59:39.000Z,1003.1
2023-01-04T08:00:55.418Z,1003.1
2023-01-04T08:02:11.000Z,1003.3
2023-01-04T08:03:27.000Z,1003.3
2023-01-04T08:04:43.000Z,1003.3
2023-01-04T08:05:59.000Z,1003.2
2023-01-04T08:07:15.000Z,1003.3
2023-01-04T08:08:32.000Z,1003.2
2023-01-04T08:09:47.000Z,1003.3
2023-01-04T08:11:03.000Z,1003.3
2023-01-04T08:12:19.000Z,1003.3
2023-01-04T08:13:35.000Z,1003.3
2023-01-04T08:14:51.000Z,1003.3
2023-01-04T08:16:07.000Z,1003.4
2023-01-04T08:17:24.000Z,1003.3
2023-01-04T08:18:40.000Z,1003.4
2023-01-04T08:19:56.000Z,1003.4
2023-01-04T08:21:12.000Z,1003.3
2023-01-04T08:22:28.927Z,1003.2
2023-01-04T08:23:44.000Z,1003.2
2023-01-04T08:25:00.000Z,1003.3
2023-01-04T08:26:16.000Z,1003.3
2023-01-04T08:27:32.000Z,1003.4
2023-01-04T08:28:48.000Z,1003.3
2023-01-04T08:30:04.000Z,1003.4
2023-01-04T08:31:20.000Z,1003.2
2023-01-04T08:32:37.120Z,1003.2
2023-01-04T08:33:53.000Z,1003.2
2023-01-04T08:35:09.000Z,1003.3
2023-01-04T08:36:25.000Z,1003.3
2023-01-04T08:37:41.000Z,1003.3
2023-01-04T08:38:57.000Z,1003.2
2023-01-04T08:40:13.000Z,1003.2
2023-01-04T08:41:29.000Z,1003.2
2023-01-04T08:42:45.000Z,1003
2023-01-04T08:44:01.000Z,1003.1
2023-01-04T08:45:17.000Z,1003.2
2023-01-04T08:46:33.000Z,1003.1
2023-01-04T08:47:49.000Z,1003.2
2023-01-04T08:49:05.000Z,1003.1
2023-01-04T08:50:22.185Z,1003.1
2023-01-04T08:51:38.000Z,1003.1
2023-01-04T08:52:54.000Z,1003
2023-01-04T08:54:10.000Z,1003.1
2023-01-04T08:55:26.000Z,1003.1
2023-01-04T08:56:42.000Z,1003
2023-01-04T08:57:58.000Z,1003.2
2023-01-04T08:59:13.000Z,1003.1
2023-01-04T09:00:30.000Z,1003
2023-01-04T09:01:46.000Z,1003
2023-01-04T09:03:02.000Z,1002.9
2023-01-04T09:04:18.000Z,1002.9
2023-01-04T09:05:34.000Z,1003
2023-01-04T09:06:50.000Z,1002.9
2023-01-04T09:08:07.258Z,1003
2023-01-04T09:09:23.000Z,1002.9
2023-01-04T09:10:39.000Z,1002.9
2023-01-04T09:11:55.000Z,1002.9
2023-01-04T09:13:11.000Z,1003
2023-01-04T09:14:27.000Z,1003
2023-01-04T09:15:42.000Z,1002.9
2023-01-04T09:16:59.299Z,1003.1
2023-01-04T09:18:15.000Z,1003
2023-01-04T09:19:31.622Z,1003.1
2023-01-04T09:20:47.744Z,1003
2023-01-04T09:22:03.000Z,1003.1
2023-01-04T09:23:19.000Z,1003.1
2023-01-04T09:24:35.000Z,1003.1
2023-01-04T09:25:52.000Z,1003.1
2023-01-04T09:27:08.000Z,1003.1
2023-01-04T09:28:24.000Z,1003.2
2023-01-04T09:29:40.000Z,1003.1
2023-01-04T09:30:56.000Z,1003
2023-01-04T09:32:11.000Z,1003.2
2023-01-04T09:33:27.000Z,1003.1
2023-01-04T09:34:44.000Z,1003.1
2023-01-04T09:36:00.000Z,1003.1
2023-01-04T09:37:16.000Z,1003
2023-01-04T09:38:32.814Z,1003.1
2023-01-04T09:39:48.000Z,1003
2023-01-04T09:41:04.000Z,1003
2023-01-04T09:42:21.000Z,1002.9
2023-01-04T09:43:37.000Z,1003.1
2023-01-04T09:44:53.000Z,1003
2023-01-04T09:46:09.000Z,1003.1
2023-01-04T09:47:25.000Z,1003.2
2023-01-04T09:48:40.000Z,1003.2
2023-01-04T09:49:57.161Z,1003
2023-01-04T09:51:13.000Z,1003.1
2023-01-04T09:52:29.000Z,1003
2023-01-04T09:53:45.000Z,1003.1
2023-01-04T09:55:01.000Z,1003
2023-01-04T09:56:17.000Z,1003
2023-01-04T09:57:33.000Z,1003.1
2023-01-04T09:58:50.182Z,1003
2023-01-04T10:00:06.000Z,1003.1
2023-01-04T10:01:22.000Z,1003.1
2023-01-04T10:02:38.000Z,1003
2023-01-04T10:03:54.000Z,1003
2023-01-04T10:05:09.000Z,1003
2023-01-04T10:06:25.000Z,1002.9
2023-01-04T10:07:42.225Z,1002.9
2023-01-04T10:08:58.000Z,1002.9
2023-01-04T10:10:14.000Z,1002.9
2023-01-04T10:11:30.000Z,1003
2023-01-04T10:12:46.000Z,1002.9
2023-01-04T10:14:02.000Z,1002.9
2023-01-04T10:15:18.000Z,1002.9
2023-01-04T10:16:35.251Z,1002.9
2023-01-04T10:17:51.000Z,1002.9
2023-01-04T10:19:07.000Z,1003
2023-01-04T10:20:23.690Z,1003.1
2023-01-04T10:21:38.000Z,1002.9
2023-01-04T10:22:54.000Z,1003
2023-01-04T10:24:10.000Z,1002.8
2023-01-04T10:25:27.000Z,1002.7
2023-01-04T10:26:43.000Z,1002.7
2023-01-04T10:27:59.000Z,1002.7
2023-01-04T10:29:15.000Z,1002.6
2023-01-04T10:30:31.877Z,1002.7
2023-01-04T10:31:47.000Z,1002.6
2023-01-04T10:33:03.000Z,1002.5
2023-01-04T10:34:20.000Z,1002.7
2023-01-04T10:35:36.000Z,1002.8
2023-01-04T10:36:52.000Z,1002.6
2023-01-04T10:38:07.000Z,1002.7
2023-01-04T10:39:23.000Z,1002.7
2023-01-04T10:40:39.000Z,1002.7
2023-01-04T10:41:55.000Z,1002.8
2023-01-04T10:43:12.000Z,1002.6
2023-01-04T10:44:28.000Z,1002.7
2023-01-04T10:45:44.000Z,1002.7
2023-01-04T10:47:00.806Z,1002.8
2023-01-04T10:48:16.000Z,1002.7
2023-01-04T10:49:32.000Z,1002.7
2023-01-04T10:50:49.249Z,1002.7
2023-01-04T10:52:05.000Z,1002.6
2023-01-04T10:53:21.000Z,1002.6
2023-01-04T10:54:36.000Z,1002.5
2023-01-04T10:55:52.000Z,1002.6
2023-01-04T10:57:08.000Z,1002.5
2023-01-04T10:58:24.000Z,1002.5
2023-01-04T10:59:41.000Z,1002.5
2023-01-04T11:00:57.000Z,1002.4
2023-01-04T11:02:12.000Z,1002.4
2023-01-04T11:03:28.000Z,1002.5
2023-01-04T11:04:44.000Z,1002.4
2023-01-04T11:06:00.000Z,1002.4
2023-01-04T11:07:17.193Z,1002.4
2023-01-04T11:08:33.000Z,1002.3
2023-01-04T11:09:49.000Z,1002.4
2023-01-04T11:11:05.000Z,1002.4
2023-01-04T11:12:21.000Z,1002.3
2023-01-04T11:13:37.000Z,1002.3
2023-01-04T11:14:53.000Z,1002.2
2023-01-04T11:16:09.000Z,1002.3
2023-01-04T11:17:26.000Z,1002.3
2023-01-04T11:18:41.000Z,1002.2
2023-01-04T11:19:57.000Z,1002.3
2023-01-04T11:21:13.824Z,1002.1
2023-01-04T11:22:29.000Z,1002.2
2023-01-04T11:23:45.000Z,1002.2
2023-01-04T11:25:02.269Z,1002.2
2023-01-04T11:26:18.000Z,1002.3
2023-01-04T11:27:34.000Z,1002.2
2023-01-04T11:28:50.000Z,1002.4
2023-01-04T11:30:06.000Z,1002.2
2023-01-04T11:31:22.000Z,1002.3
2023-01-04T11:32:39.146Z,1002.2
2023-01-04T11:33:55.306Z,1002.3
2023-01-04T11:35:10.000Z,1002.2
2023-01-04T11:36:26.000Z,1002.2
2023-01-04T11:37:42.000Z,1002.1
2023-01-04T11:38:58.000Z,1002.1
2023-01-04T11:40:14.000Z,1002.1
2023-01-04T11:41:30.000Z,1002.1
2023-01-04T11:42:47.000Z,1002.1
2023-01-04T11:44:03.000Z,1002.2
2023-01-04T11:45:19.000Z,1002.1
2023-01-04T11:46:35.000Z,1001.9
2023-01-04T11:47:51.000Z,1002
2023-01-04T11:49:07.000Z,1002
2023-01-04T11:50:23.000Z,1001.9
2023-01-04T11:51:39.000Z,1001.8
2023-01-04T11:52:55.000Z,1001.9
2023-01-04T11:54:11.000Z,1001.9
2023-01-04T11:55:27.000Z,1002
2023-01-04T11:56:43.000Z,1001.8
2023-01-04T11:57:59.000Z,1001.9
2023-01-04T11:59:16.262Z,1001.9
2023-01-04T12:00:32.000Z,1001.8
2023-01-04T12:01:48.000Z,1001.8
2023-01-04T12:03:04.718Z,1001.7
2023-01-04T12:04:20.000Z,1001.8
2023-01-04T12:05:36.000Z,1001.8
2023-01-04T12:06:52.000Z,1001.7
2023-01-04T12:08:08.000Z,1001.8
2023-01-04T12:09:24.000Z,1001.9
2023-01-04T12:10:40.000Z,1001.9
2023-01-04T12:11:56.000Z,1001.7
2023-01-04T12:13:12.890Z,1001.5
2023-01-04T12:14:28.000Z,1001.8
2023-01-04T12:15:44.000Z,1001.9
2023-01-04T12:17:01.330Z,1001.7
2023-01-04T12:18:17.000Z,1001.6
2023-01-04T12:19:33.000Z,1001.7
2023-01-04T12:20:49.000Z,1001.8
2023-01-04T12:22:05.000Z,1001.9
2023-01-04T12:23:21.000Z,1001.7
2023-01-04T12:24:36.000Z,1001.6
2023-01-04T12:25:53.000Z,1001.7
2023-01-04T12:27:09.000Z,1001.6
2023-01-04T12:28:25.000Z,1001.8
2023-01-04T12:29:41.000Z,1001.7
2023-01-04T12:30:57.000Z,1001.7
2023-01-04T12:32:13.000Z,1001.7
2023-01-04T12:33:30.000Z,1001.8
2023-01-04T12:34:46.000Z,1001.7
2023-01-04T12:36:02.000Z,1001.7
2023-01-04T12:37:18.000Z,1001.7
2023-01-04T12:38:34.830Z,1001.7
2023-01-04T12:39:50.000Z,1001.9
2023-01-04T12:41:05.000Z,1001.8
2023-01-04T12:42:22.000Z,1001.7
2023-01-04T12:43:38.000Z,1001.8
2023-01-04T12:44:54.579Z,1001.8
2023-01-04T12:46:10.000Z,1001.6
2023-01-04T12:47:26.000Z,1001.7
2023-01-04T12:48:42.000Z,1001.8
2023-01-04T12:49:58.000Z,1001.8
2023-01-04T12:51:15.000Z,1001.6
2023-01-04T12:52:31.000Z,1001.6
2023-01-04T12:53:47.000Z,1001.6
2023-01-04T12:55:03.000Z,1001.7
2023-01-04T12:56:19.000Z,1001.8
2023-01-04T12:57:34.000Z,1001.7
2023-01-04T12:58:50.000Z,1001.7
2023-01-04T13:00:07.000Z,1001.7
2023-01-04T13:01:23.000Z,1001.8
2023-01-04T13:02:39.000Z,1001.8
2023-01-04T13:03:55.000Z,1001.7
2023-01-04T13:05:11.000Z,1001.8
2023-01-04T13:06:27.000Z,1001.7
2023-01-04T13:07:44.216Z,1001.7
2023-01-04T13:09:00.000Z,1001.8
2023-01-04T13:10:16.000Z,1001.5
2023-01-04T13:11:32.000Z,1001.7
2023-01-04T13:12:48.000Z,1001.7
2023-01-04T13:14:03.000Z,1001.8
2023-01-04T13:15:20.103Z,1001.7
2023-01-04T13:16:36.246Z,1001.5
2023-01-04T13:17:52.000Z,1001.6
2023-01-04T13:19:08.000Z,1001.6
2023-01-04T13:20:24.000Z,1001.6
2023-01-04T13:21:40.000Z,1001.5
2023-01-04T13:22:56.000Z,1001.5
2023-01-04T13:24:12.000Z,1001.4
2023-01-04T13:25:29.268Z,1001.6
2023-01-04T13:26:45.000Z,1001.4
2023-01-04T13:28:01.000Z,1001.5
2023-01-04T13:29:17.000Z,1001.4
2023-01-04T13:30:32.000Z,1001.5
2023-01-04T13:31:48.000Z,1001.4
2023-01-04T13:33:04.000Z,1001.5
2023-01-04T13:34:21.296Z,1001.5
2023-01-04T13:35:37.000Z,1001.5
2023-01-04T13:36:53.000Z,1001.4
2023-01-04T13:38:09.000Z,1001.4
2023-01-04T13:39:25.000Z,1001.2
2023-01-04T13:40:41.000Z,1001.3
2023-01-04T13:41:57.000Z,1001.3
2023-01-04T13:43:14.000Z,1001.3
2023-01-04T13:44:30.000Z,1001.4
2023-01-04T13:45:46.000Z,1001.4
2023-01-04T13:47:01.000Z,1001.3
2023-01-04T13:48:17.930Z,1001.3
2023-01-04T13:49:33.000Z,1001.4
2023-01-04T13:50:49.000Z,1001.3
2023-01-04T13:52:06.000Z,1001.3
2023-01-04T13:53:22.000Z,1001.2
2023-01-04T13:54:38.000Z,1001.2
2023-01-04T13:55:54.000Z,1001.2
2023-01-04T13:57:10.000Z,1001.3
2023-01-04T13:58:26.000Z,1001.2
2023-01-04T13:59:42.000Z,1001.1
2023-01-04T14:00:59.000Z,1001
2023-01-04T14:02:15.000Z,1001.1
2023-01-04T14:03:30.699Z,1001.2
2023-01-04T14:04:46.000Z,1001
2023-01-04T14:06:02.000Z,1001
2023-01-04T14:07:19.118Z,1001
2023-01-04T14:08:35.000Z,1001.1
2023-01-04T14:09:51.000Z,1001.1
2023-01-04T14:11:07.000Z,1001.1
2023-01-04T14:12:23.000Z,1001
2023-01-04T14:13:39.000Z,1000.9
2023-01-04T14:14:55.000Z,1001.1
2023-01-04T14:16:11.000Z,1001
2023-01-04T14:17:28.000Z,1001.1
2023-01-04T14:18:44.000Z,1001.1
2023-01-04T14:19:59.587Z,1001
2023-01-04T14:21:15.000Z,1001.1
2023-01-04T14:22:31.000Z,1000.9
2023-01-04T14:23:47.000Z,1000.9
2023-01-04T14:25:03.000Z,1000.9
2023-01-04T14:26:20.000Z,1000.8
2023-01-04T14:27:36.000Z,1000.9
2023-01-04T14:28:52.000Z,1000.8
2023-01-04T14:30:08.000Z,1000.8
2023-01-04T14:31:24.000Z,1000.7
2023-01-04T14:32:41.042Z,1000.7
2023-01-04T14:33:57.207Z,1000.7
2023-01-04T14:35:13.000Z,1000.8
2023-01-04T14:36:28.000Z,1000.7
2023-01-04T14:37:44.000Z,1000.6
2023-01-04T14:39:00.000Z,1000.8
2023-01-04T14:40:16.000Z,1000.6
2023-01-04T14:41:32.000Z,1000.7
2023-01-04T14:42:48.000Z,1000.7
2023-01-04T14:44:05.000Z,1000.7
2023-01-04T14:45:21.000Z,1000.8
2023-01-04T14:46:37.000Z,1000.8
2023-01-04T14:47:53.000Z,1000.7
2023-01-04T14:49:09.000Z,1000.7
2023-01-04T14:50:25.000Z,1000.6
2023-01-04T14:51:42.000Z,1000.6
2023-01-04T14:52:57.000Z,1000.6
2023-01-04T14:54:13.000Z,1000.7
2023-01-04T14:55:29.000Z,1000.7
2023-01-04T14:56:45.000Z,1000.6
2023-01-04T14:58:01.000Z,1000.5
2023-01-04T14:59:17.000Z,1000.5
2023-01-04T15:00:34.000Z,1000.6
2023-01-04T15:01:50.000Z,1000.5
2023-01-04T15:03:06.567Z,1000.6
2023-01-04T15:04:22.740Z,1000.7
2023-01-04T15:05:38.855Z,1000.5
2023-01-04T15:06:55.017Z,1000.4
2023-01-04T15:08:10.000Z,1000.5
2023-01-04T15:09:26.000Z,1000.4
2023-01-04T15:10:42.000Z,1000.5
2023-01-04T15:11:58.000Z,1000.5
2023-01-04T15:13:14.777Z,1000.4
2023-01-04T15:14:30.000Z,1000.5
2023-01-04T15:15:46.000Z,1000.7
2023-01-04T15:17:01.000Z,1000.5
2023-01-04T15:18:18.000Z,1000.5
2023-01-04T15:19:34.496Z,1000.5
2023-01-04T15:20:50.000Z,1000.6
2023-01-04T15:22:06.778Z,1000.4
2023-01-04T15:23:22.000Z,1000.5
2023-01-04T15:24:38.000Z,1000.5
2023-01-04T15:25:54.000Z,1000.5
2023-01-04T15:27:11.000Z,1000.6
2023-01-04T15:28:27.000Z,1000.4
2023-01-04T15:29:43.000Z,1000.5
2023-01-04T15:30:59.000Z,1000.5
2023-01-04T15:32:15.000Z,1000.4
2023-01-04T15:33:30.000Z,1000.6
2023-01-04T15:34:47.000Z,1000.6
2023-01-04T15:36:03.000Z,1000.6
2023-01-04T15:37:19.000Z,1000.5
2023-01-04T15:38:35.000Z,1000.6
2023-01-04T15:39:51.000Z,1000.6
2023-01-04T15:41:07.000Z,1000.5
2023-01-04T15:42:23.000Z,1000.5
2023-01-04T15:43:40.000Z,1000.5
2023-01-04T15:44:56.000Z,1000.8
2023-01-04T15:46:12.000Z,1000.5
2023-01-04T15:47:28.000Z,1000.5
2023-01-04T15:48:44.000Z,1000.5
2023-01-04T15:49:59.000Z,1000.5
2023-01-04T15:51:15.000Z,1000.4
2023-01-04T15:52:32.000Z,1000.3
2023-01-04T15:53:48.000Z,1000.6
2023-01-04T15:55:04.000Z,1000.3